createdAt,value
2022-08-09T00:00:13.682Z,25.00
2022-08-09T00:02:42.778Z,25.00
2022-08-09T00:06:19.117Z,25.00
2022-08-09T00:08:02.709Z,25.00
2022-08-09T00:10:29.890Z,24.90
2022-08-09T00:12:57.169Z,25.00
2022-08-09T00:15:26.752Z,25.00
2022-08-09T00:18:12.553Z,24.90
2022-08-09T00:20:48.295Z,25.00
2022-08-09T00:23:58.147Z,24.90
2022-08-09T00:26:08.668Z,24.90
2022-08-09T00:31:09.173Z,24.90
2022-08-09T00:33:54.707Z,24.90
2022-08-09T00:36:27.111Z,24.90
2022-08-09T00:38:56.840Z,24.90
2022-08-09T00:44:14.883Z,24.90
2022-08-09T00:44:20.089Z,24.90
2022-08-09T00:46:55.951Z,24.90
2022-08-09T00:49:28.674Z,24.90
2022-08-09T00:52:02.139Z,24.90
2022-08-09T00:54:36.281Z,24.90
2022-08-09T00:57:08.996Z,24.90
2022-08-09T00:59:46.002Z,24.90
2022-08-09T01:02:21.604Z,24.90
2022-08-09T01:05:21.828Z,24.80
2022-08-09T01:08:01.835Z,24.80
2022-08-09T01:10:40.351Z,24.80
2022-08-09T01:13:59.548Z,24.80
2022-08-09T01:16:35.792Z,24.80
2022-08-09T01:19:40.183Z,24.80
2022-08-09T01:22:33.149Z,24.80
2022-08-09T01:25:13.580Z,24.80
2022-08-09T01:27:51.381Z,24.70
2022-08-09T01:30:28.776Z,24.70
2022-08-09T01:33:06.170Z,24.70
2022-08-09T01:35:42.796Z,24.70
2022-08-09T01:38:16.197Z,24.70
2022-08-09T01:40:52.774Z,24.70
2022-08-09T01:43:50.609Z,24.70
2022-08-09T01:46:31.674Z,24.70
2022-08-09T01:49:12.635Z,24.70
2022-08-09T01:51:53.011Z,24.70
2022-08-09T01:54:25.954Z,24.70
2022-08-09T01:56:54.814Z,24.70
2022-08-09T01:59:24.320Z,24.70
2022-08-09T02:01:59.925Z,24.70
2022-08-09T02:04:31.705Z,24.70
2022-08-09T02:08:34.661Z,24.60
2022-08-09T02:10:16.099Z,24.60
2022-08-09T02:12:46.144Z,24.70
2022-08-09T02:15:16.669Z,24.60
2022-08-09T02:18:00.451Z,24.70
2022-08-09T02:20:36.399Z,24.60
2022-08-09T02:23:17.829Z,24.60
2022-08-09T02:25:49.651Z,24.60
2022-08-09T02:28:40.632Z,24.60
2022-08-09T02:31:19.786Z,24.60
2022-08-09T02:34:07.448Z,24.60
2022-08-09T02:36:42.010Z,24.60
2022-08-09T02:39:14.578Z,24.50
2022-08-09T02:42:16.656Z,24.50
2022-08-09T02:44:54.858Z,24.50
2022-08-09T02:47:23.439Z,24.50
2022-08-09T02:50:02.484Z,24.50
2022-08-09T02:52:38.620Z,24.50
2022-08-09T02:55:21.137Z,24.50
2022-08-09T02:58:00.425Z,24.50
2022-08-09T03:00:58.036Z,24.50
2022-08-09T03:03:59.561Z,24.50
2022-08-09T03:06:15.335Z,24.50
2022-08-09T03:08:47.535Z,24.50
2022-08-09T03:12:04.724Z,24.50
2022-08-09T03:14:10.042Z,24.50
2022-08-09T03:16:41.667Z,24.50
2022-08-09T03:19:16.657Z,24.50
2022-08-09T03:21:58.035Z,24.40
2022-08-09T03:24:31.253Z,24.40
2022-08-09T03:27:09.816Z,24.40
2022-08-09T03:29:43.170Z,24.40
2022-08-09T03:32:26.126Z,24.40
2022-08-09T03:34:54.205Z,24.40
2022-08-09T03:37:55.880Z,24.40
2022-08-09T03:40:13.061Z,24.40
2022-08-09T03:42:43.179Z,24.40
2022-08-09T03:45:10.915Z,24.40
2022-08-09T03:47:46.324Z,24.40
2022-08-09T03:50:14.211Z,24.40
2022-08-09T03:52:46.305Z,24.30
2022-08-09T03:55:14.366Z,24.30
2022-08-09T03:57:53.489Z,24.30
2022-08-09T04:00:25.806Z,24.40
2022-08-09T04:02:55.476Z,24.30
2022-08-09T04:05:27.435Z,24.30
2022-08-09T04:07:57.150Z,24.30
2022-08-09T04:10:29.048Z,24.30
2022-08-09T04:13:01.405Z,24.30
2022-08-09T04:15:51.973Z,24.30
2022-08-09T04:18:19.239Z,24.30
2022-08-09T04:20:51.191Z,24.30
2022-08-09T04:23:24.292Z,24.30
2022-08-09T04:25:53.069Z,24.30
2022-08-09T04:28:30.805Z,24.30
2022-08-09T04:31:05.666Z,24.30
2022-08-09T04:33:47.299Z,24.30
2022-08-09T04:36:19.356Z,24.20
2022-08-09T04:38:46.334Z,24.30
2022-08-09T04:41:14.322Z,24.20
2022-08-09T04:43:46.588Z,24.20
2022-08-09T04:46:57.078Z,24.20
2022-08-09T04:49:15.170Z,24.20
2022-08-09T04:51:41.947Z,24.20
2022-08-09T04:54:08.716Z,24.20
2022-08-09T04:56:37.295Z,24.20
2022-08-09T04:59:07.877Z,24.20
2022-08-09T05:01:42.306Z,24.20
2022-08-09T05:04:09.143Z,24.20
2022-08-09T05:06:36.868Z,24.10
2022-08-09T05:09:03.771Z,24.10
2022-08-09T05:11:35.432Z,24.10
2022-08-09T05:14:06.667Z,24.10
2022-08-09T05:16:58.097Z,24.10
2022-08-09T05:19:24.458Z,24.10
2022-08-09T05:21:55.913Z,24.10
2022-08-09T05:24:24.669Z,24.10
2022-08-09T05:26:52.522Z,24.10
2022-08-09T05:29:22.233Z,24.10
2022-08-09T05:31:56.933Z,24.10
2022-08-09T05:34:30.856Z,24.10
2022-08-09T05:37:06.704Z,24.10
2022-08-09T05:39:43.678Z,24.10
2022-08-09T05:42:17.723Z,24.10
2022-08-09T05:44:52.407Z,24.10
2022-08-09T05:47:25.257Z,24.10
2022-08-09T05:50:25.685Z,24.10
2022-08-09T05:52:43.707Z,23.60
2022-08-09T05:55:18.042Z,24.00
2022-08-09T05:57:55.897Z,24.00
2022-08-09T06:00:29.963Z,24.00
2022-08-09T06:02:58.710Z,24.00
2022-08-09T06:05:31.203Z,24.00
2022-08-09T06:08:19.763Z,24.00
2022-08-09T06:10:52.887Z,24.00
2022-08-09T06:13:21.246Z,24.00
2022-08-09T06:15:51.794Z,24.00
2022-08-09T06:18:20.469Z,24.00
2022-08-09T06:20:54.658Z,23.90
2022-08-09T06:23:57.553Z,23.90
2022-08-09T06:26:11.939Z,23.90
2022-08-09T06:28:38.701Z,24.00
2022-08-09T06:31:10.334Z,23.90
2022-08-09T06:33:41.048Z,23.90
2022-08-09T06:36:11.923Z,23.90
2022-08-09T06:38:47.310Z,23.90
2022-08-09T06:41:18.671Z,23.90
2022-08-09T06:43:47.499Z,23.90
2022-08-09T06:46:40.175Z,23.90
2022-08-09T06:49:04.695Z,23.90
2022-08-09T06:51:33.606Z,23.90
2022-08-09T06:54:06.128Z,23.90
2022-08-09T06:56:39.372Z,23.90
2022-08-09T07:00:49.989Z,23.80
2022-08-09T07:02:01.253Z,23.90
2022-08-09T07:04:30.903Z,23.90
2022-08-09T07:07:00.529Z,23.90
2022-08-09T07:09:55.404Z,23.80
2022-08-09T07:12:18.268Z,23.90
2022-08-09T07:14:51.452Z,23.90
2022-08-09T07:17:22.025Z,23.90
2022-08-09T07:19:50.857Z,23.80
2022-08-09T07:22:39.533Z,23.80
2022-08-09T07:25:10.100Z,23.90
2022-08-09T07:27:42.904Z,23.90
2022-08-09T07:30:13.306Z,23.90
2022-08-09T07:32:41.634Z,23.90
2022-08-09T07:35:12.009Z,23.90
2022-08-09T07:37:44.599Z,23.90
2022-08-09T07:40:17.070Z,23.90
2022-08-09T07:42:54.595Z,23.90
2022-08-09T07:45:38.195Z,23.90
2022-08-09T07:48:25.810Z,24.00
2022-08-09T07:51:09.729Z,24.00
2022-08-09T07:54:07.594Z,24.00
2022-08-09T07:56:30.957Z,24.00
2022-08-09T07:58:59.366Z,24.00
2022-08-09T08:01:34.015Z,24.00
2022-08-09T08:04:02.436Z,24.00
2022-08-09T08:06:32.080Z,24.00
2022-08-09T08:09:04.868Z,24.00
2022-08-09T08:12:24.966Z,24.00
2022-08-09T08:14:21.045Z,24.10
2022-08-09T08:16:51.167Z,24.00
2022-08-09T08:19:31.974Z,24.10
2022-08-09T08:21:58.762Z,24.10
2022-08-09T08:24:32.150Z,24.10
2022-08-09T08:27:16.666Z,24.10
2022-08-09T08:29:48.600Z,24.10
2022-08-09T08:32:24.485Z,24.10
2022-08-09T08:34:58.718Z,24.10
2022-08-09T08:37:40.715Z,24.10
2022-08-09T08:40:08.310Z,24.10
2022-08-09T08:42:35.492Z,24.10
2022-08-09T08:45:11.818Z,24.10
2022-08-09T08:47:42.842Z,24.10
2022-08-09T08:50:17.909Z,24.10
2022-08-09T08:52:59.159Z,24.20
2022-08-09T08:55:27.457Z,24.20
2022-08-09T08:57:57.468Z,24.20
2022-08-09T09:00:27.819Z,24.20
2022-08-09T09:03:08.800Z,24.20
2022-08-09T09:05:59.156Z,24.20
2022-08-09T09:08:37.595Z,24.30
2022-08-09T09:11:06.018Z,24.20
2022-08-09T09:13:48.564Z,24.30
2022-08-09T09:16:34.446Z,24.30
2022-08-09T09:22:07.894Z,24.30
2022-08-09T09:24:43.364Z,24.30
2022-08-09T09:28:03.910Z,24.30
2022-08-09T09:30:22.702Z,24.30
2022-08-09T09:33:14.256Z,24.30
2022-08-09T09:36:02.216Z,24.30
2022-08-09T09:38:59.597Z,24.40
2022-08-09T09:41:33.427Z,24.40
2022-08-09T09:44:25.778Z,24.40
2022-08-09T09:47:03.805Z,24.40
2022-08-09T09:49:50.121Z,24.40
2022-08-09T09:52:37.409Z,24.40
2022-08-09T09:55:28.567Z,24.50
2022-08-09T09:58:17.060Z,24.50
2022-08-09T10:00:58.967Z,24.50
2022-08-09T10:03:56.256Z,24.50
2022-08-09T10:06:25.843Z,24.50
2022-08-09T10:09:00.273Z,24.50
2022-08-09T10:11:59.350Z,24.50
2022-08-09T10:14:30.645Z,24.50
2022-08-09T10:17:24.143Z,24.50
2022-08-09T10:19:57.250Z,24.60
2022-08-09T10:22:34.151Z,24.50
2022-08-09T10:25:07.038Z,24.60
2022-08-09T10:27:56.015Z,24.60
2022-08-09T10:34:04.294Z,24.60
2022-08-09T10:36:00.895Z,24.60
2022-08-09T10:38:34.421Z,24.70
2022-08-09T10:41:18.622Z,24.70
2022-08-09T10:44:00.889Z,24.70
2022-08-09T10:46:54.586Z,24.70
2022-08-09T10:49:46.936Z,24.70
2022-08-09T10:52:26.521Z,24.70
2022-08-09T10:54:53.843Z,24.70
2022-08-09T10:57:23.230Z,24.80
2022-08-09T10:59:57.393Z,24.70
2022-08-09T11:03:14.573Z,24.70
2022-08-09T11:05:30.243Z,24.80
2022-08-09T11:08:47.839Z,24.80
2022-08-09T11:11:19.078Z,24.90
2022-08-09T11:13:50.847Z,24.90
2022-08-09T11:16:36.242Z,24.90
2022-08-09T11:19:09.586Z,24.90
2022-08-09T11:22:05.474Z,24.90
2022-08-09T11:24:57.899Z,25.00
2022-08-09T11:28:03.003Z,25.00
2022-08-09T11:30:36.082Z,25.00
2022-08-09T11:33:09.334Z,25.00
2022-08-09T11:35:59.920Z,25.10
2022-08-09T11:38:32.115Z,25.00
2022-08-09T11:41:13.604Z,25.10
2022-08-09T11:43:40.658Z,25.10
2022-08-09T11:46:10.674Z,25.10
2022-08-09T11:48:55.989Z,25.20
2022-08-09T11:52:57.023Z,25.20
2022-08-09T11:54:28.692Z,25.20
2022-08-09T11:58:00.863Z,25.20
2022-08-09T12:00:31.126Z,25.20
2022-08-09T12:03:50.282Z,25.20
2022-08-09T12:05:48.818Z,25.20
2022-08-09T12:08:21.569Z,25.30
2022-08-09T12:10:53.841Z,25.30
2022-08-09T12:14:07.755Z,25.40
2022-08-09T12:16:39.923Z,25.40
2022-08-09T12:19:10.519Z,25.40
2022-08-09T12:21:48.439Z,25.50
2022-08-09T12:24:23.900Z,25.50
2022-08-09T12:29:14.324Z,25.50
2022-08-09T12:29:43.958Z,25.60
2022-08-09T12:32:26.879Z,25.60
2022-08-09T12:35:04.588Z,25.60
2022-08-09T12:37:44.137Z,25.70
2022-08-09T12:40:17.965Z,25.70
2022-08-09T12:42:46.475Z,25.80
2022-08-09T12:45:34.266Z,25.80
2022-08-09T12:48:06.548Z,25.80
2022-08-09T12:50:38.906Z,25.80
2022-08-09T12:53:40.792Z,25.90
2022-08-09T12:56:14.581Z,25.90
2022-08-09T12:59:13.846Z,25.80
2022-08-09T13:02:07.258Z,25.90
2022-08-09T13:04:38.838Z,25.90
2022-08-09T13:07:19.780Z,26.00
2022-08-09T13:09:55.539Z,25.90
2022-08-09T13:12:28.038Z,25.90
2022-08-09T13:15:07.696Z,26.00
2022-08-09T13:18:03.341Z,26.00
2022-08-09T13:21:04.009Z,26.00
2022-08-09T13:24:07.429Z,26.00
2022-08-09T13:26:49.964Z,26.10
2022-08-09T13:29:28.641Z,26.10
2022-08-09T13:32:19.066Z,26.10
2022-08-09T13:34:48.420Z,26.10
2022-08-09T13:37:24.773Z,26.10
2022-08-09T13:41:46.067Z,26.20
2022-08-09T13:42:54.466Z,26.20
2022-08-09T13:45:21.337Z,26.30
2022-08-09T13:47:59.287Z,26.30
2022-08-09T13:50:30.453Z,26.30
2022-08-09T13:52:58.385Z,26.30
2022-08-09T13:55:28.998Z,26.40
2022-08-09T13:57:58.427Z,26.40
2022-08-09T14:00:28.975Z,26.40
2022-08-09T14:03:04.113Z,26.50
2022-08-09T14:05:58.426Z,26.50
2022-08-09T14:08:28.277Z,26.50
2022-08-09T14:10:56.092Z,26.60
2022-08-09T14:14:14.876Z,26.60
2022-08-09T14:16:15.079Z,26.60
2022-08-09T14:18:45.843Z,26.70
2022-08-09T14:21:20.055Z,26.70
2022-08-09T14:23:55.263Z,26.70
2022-08-09T14:26:32.748Z,26.80
2022-08-09T14:30:04.454Z,26.80
2022-08-09T14:31:55.707Z,26.80
2022-08-09T14:34:31.443Z,26.80
2022-08-09T14:37:06.543Z,26.90
2022-08-09T14:39:45.537Z,26.90
2022-08-09T14:42:32.065Z,26.90
2022-08-09T14:46:46.421Z,26.90
2022-08-09T14:47:58.439Z,26.90
2022-08-09T14:50:31.446Z,26.90
2022-08-09T14:52:59.944Z,26.90
2022-08-09T14:55:29.113Z,26.90
2022-08-09T14:57:59.896Z,27.00
2022-08-09T15:00:26.994Z,27.00
2022-08-09T15:02:58.319Z,27.00
2022-08-09T15:05:27.015Z,27.00
2022-08-09T15:07:55.952Z,27.00
2022-08-09T15:10:26.972Z,27.00
2022-08-09T15:12:55.578Z,27.00
2022-08-09T15:15:23.622Z,27.00
2022-08-09T15:17:52.803Z,27.10
2022-08-09T15:21:58.697Z,27.10
2022-08-09T15:24:01.905Z,27.10
2022-08-09T15:25:57.362Z,27.10
2022-08-09T15:28:27.263Z,27.20
2022-08-09T15:31:14.562Z,27.30
2022-08-09T15:34:17.226Z,27.30
2022-08-09T15:36:31.630Z,27.40
2022-08-09T15:39:00.037Z,27.40
2022-08-09T15:41:31.316Z,27.40
2022-08-09T15:44:01.895Z,27.40
2022-08-09T15:46:34.173Z,27.40
2022-08-09T15:49:22.299Z,27.40
2022-08-09T15:52:04.675Z,27.40
2022-08-09T15:54:44.769Z,27.40
2022-08-09T15:57:34.540Z,27.40
2022-08-09T16:00:14.145Z,27.40
2022-08-09T16:02:48.045Z,27.40
2022-08-09T16:05:21.891Z,27.40
2022-08-09T16:07:49.339Z,27.50
2022-08-09T16:10:38.867Z,27.60
2022-08-09T16:13:04.121Z,27.50
2022-08-09T16:16:10.621Z,27.50
2022-08-09T16:18:17.645Z,27.50
2022-08-09T16:20:46.686Z,27.50
2022-08-09T16:23:13.708Z,27.50
2022-08-09T16:25:41.611Z,27.50
2022-08-09T16:28:16.627Z,27.50
2022-08-09T16:30:44.806Z,27.50
2022-08-09T16:33:23.198Z,27.70
2022-08-09T16:35:56.925Z,27.70
2022-08-09T16:38:26.773Z,27.60
2022-08-09T16:40:53.913Z,27.60
2022-08-09T16:43:23.163Z,27.60
2022-08-09T16:45:53.488Z,27.60
2022-08-09T16:48:42.958Z,27.60
2022-08-09T16:51:14.402Z,27.60
2022-08-09T16:54:24.824Z,27.60
2022-08-09T16:56:34.933Z,27.70
2022-08-09T16:59:06.826Z,27.60
2022-08-09T17:01:38.710Z,27.70
2022-08-09T17:04:06.496Z,27.70
2022-08-09T17:06:48.333Z,27.70
2022-08-09T17:09:45.045Z,27.70
2022-08-09T17:12:08.003Z,27.70
2022-08-09T17:14:35.298Z,27.60
2022-08-09T17:17:03.576Z,27.60
2022-08-09T17:20:32.747Z,27.60
2022-08-09T17:22:38.726Z,27.60
2022-08-09T17:25:17.231Z,27.60
2022-08-09T17:27:48.732Z,27.70
2022-08-09T17:30:16.724Z,27.60
2022-08-09T17:32:46.595Z,27.60
2022-08-09T17:35:14.725Z,27.60
2022-08-09T17:38:14.537Z,27.70
2022-08-09T17:40:32.825Z,27.60
2022-08-09T17:43:32.482Z,27.70
2022-08-09T17:46:05.711Z,27.60
2022-08-09T17:48:46.613Z,27.60
2022-08-09T17:51:20.041Z,27.60
2022-08-09T17:53:52.876Z,27.60
2022-08-09T17:56:27.482Z,27.60
2022-08-09T17:59:03.360Z,27.70
2022-08-09T18:02:03.430Z,27.60
2022-08-09T18:04:22.578Z,27.70
2022-08-09T18:06:54.526Z,27.60
2022-08-09T18:09:23.468Z,27.70
2022-08-09T18:12:05.640Z,27.60
2022-08-09T18:14:49.979Z,27.60
2022-08-09T18:17:27.333Z,27.60
2022-08-09T18:20:57.866Z,27.60
2022-08-09T18:22:54.281Z,27.70
2022-08-09T18:25:52.332Z,27.70
2022-08-09T18:28:21.479Z,27.60
2022-08-09T18:30:58.694Z,27.70
2022-08-09T18:33:26.129Z,27.70
2022-08-09T18:35:59.109Z,27.70
2022-08-09T18:38:27.732Z,27.70
2022-08-09T18:40:55.793Z,27.70
2022-08-09T18:43:24.825Z,27.60
2022-08-09T18:46:50.148Z,27.60
2022-08-09T18:48:42.377Z,27.60
2022-08-09T18:51:09.531Z,27.60
2022-08-09T18:54:00.627Z,27.60
2022-08-09T18:56:27.175Z,27.60
2022-08-09T19:01:23.365Z,27.60
2022-08-09T19:04:01.035Z,27.60
2022-08-09T19:06:33.671Z,27.60
2022-08-09T19:09:02.259Z,27.60
2022-08-09T19:11:35.210Z,27.60
2022-08-09T19:14:05.184Z,27.60
2022-08-09T19:16:36.706Z,27.60
2022-08-09T19:19:25.468Z,27.50
2022-08-09T19:22:04.782Z,27.50
2022-08-09T19:24:38.782Z,27.50
2022-08-09T19:27:21.463Z,27.50
2022-08-09T19:30:23.218Z,27.50
2022-08-09T19:35:04.690Z,27.50
